createdAt,value
2019-04-27T00:02:01.607Z,74.40
2019-04-27T00:04:25.250Z,74.50
2019-04-27T00:06:47.206Z,74.10
2019-04-27T00:09:15.440Z,74.60
2019-04-27T00:11:37.420Z,74.10
2019-04-27T00:13:59.297Z,74.50
2019-04-27T00:16:21.251Z,74.60
2019-04-27T00:18:45.482Z,74.30
2019-04-27T00:21:23.711Z,74.00
2019-04-27T00:23:46.019Z,74.00
2019-04-27T00:26:06.417Z,74.40
2019-04-27T00:28:26.705Z,74.50
2019-04-27T00:30:49.752Z,74.30
2019-04-27T00:33:09.791Z,74.50
2019-04-27T00:35:33.522Z,74.70
2019-04-27T00:37:55.562Z,74.60
2019-04-27T00:40:33.556Z,74.70
2019-04-27T00:42:55.541Z,74.60
2019-04-27T00:45:17.546Z,74.70
2019-04-27T00:47:37.796Z,75.00
2019-04-27T00:49:57.983Z,75.30
2019-04-27T00:52:18.295Z,74.50
2019-04-27T00:54:38.598Z,74.40
2019-04-27T00:57:06.674Z,75.30
2019-04-27T00:59:47.359Z,73.70
2019-04-27T01:02:13.450Z,74.10
2019-04-27T01:04:35.869Z,74.70
2019-04-27T01:06:56.116Z,74.60
2019-04-27T01:09:19.270Z,73.40
2019-04-27T01:11:39.404Z,73.90
2019-04-27T01:13:59.178Z,73.10
2019-04-27T01:16:24.242Z,73.50
2019-04-27T01:18:43.932Z,73.90
2019-04-27T01:21:04.316Z,74.10
2019-04-27T01:23:24.552Z,74.20
2019-04-27T01:25:46.571Z,73.80
2019-04-27T01:28:11.066Z,73.60
2019-04-27T01:30:34.554Z,74.80
2019-04-27T01:32:54.802Z,75.20
2019-04-27T01:35:15.102Z,78.20
2019-04-27T01:37:36.299Z,79.50
2019-04-27T01:39:56.614Z,79.80
2019-04-27T01:42:16.891Z,83.10
2019-04-27T01:44:37.082Z,85.70
2019-04-27T01:46:57.409Z,88.70
2019-04-27T01:49:19.397Z,90.10
2019-04-27T01:51:40.067Z,90.90
2019-04-27T01:54:00.536Z,92.30
2019-04-27T01:56:20.570Z,92.50
2019-04-27T01:58:41.062Z,92.90
2019-04-27T02:01:03.056Z,93.50
2019-04-27T02:03:44.076Z,93.80
2019-04-27T02:06:04.916Z,93.90
2019-04-27T02:08:28.666Z,95.30
2019-04-27T02:10:49.759Z,97.00
2019-04-27T02:13:09.735Z,97.60
2019-04-27T02:15:29.680Z,98.80
2019-04-27T02:17:51.036Z,97.60
2019-04-27T02:20:12.654Z,98.60
2019-04-27T02:22:33.304Z,98.90
2019-04-27T02:24:53.184Z,99.30
2019-04-27T02:27:16.564Z,99.40
2019-04-27T02:29:38.936Z,99.90
2019-04-27T02:32:01.117Z,99.90
2019-04-27T02:34:23.827Z,99.90
2019-04-27T02:36:44.397Z,99.90
2019-04-27T02:39:09.291Z,99.90
2019-04-27T02:41:31.938Z,99.90
2019-04-27T02:44:01.668Z,99.90
2019-04-27T02:46:21.661Z,99.90
2019-04-27T02:48:56.015Z,99.90
2019-04-27T02:51:06.122Z,99.90
2019-04-27T02:53:45.674Z,99.90
2019-04-27T02:56:10.314Z,99.90
2019-04-27T02:58:31.694Z,99.90
2019-04-27T03:00:55.228Z,99.90
2019-04-27T03:03:16.770Z,99.90
2019-04-27T03:05:39.676Z,99.90
2019-04-27T03:08:02.838Z,99.90
2019-04-27T03:10:25.967Z,99.90
2019-04-27T03:12:49.822Z,99.60
2019-04-27T03:15:12.161Z,99.70
2019-04-27T03:17:40.244Z,98.70
2019-04-27T03:20:20.241Z,98.50
2019-04-27T03:22:45.141Z,97.90
2019-04-27T03:25:14.951Z,97.70
2019-04-27T03:27:34.870Z,97.10
2019-04-27T03:29:56.472Z,96.30
2019-04-27T03:32:16.524Z,96.50
2019-04-27T03:34:41.515Z,96.60
2019-04-27T03:36:59.817Z,96.70
2019-04-27T03:39:20.524Z,95.70
2019-04-27T03:41:41.305Z,95.50
2019-04-27T03:44:01.937Z,95.80
2019-04-27T03:46:22.621Z,95.50
2019-04-27T03:48:42.609Z,94.90
2019-04-27T03:51:19.715Z,94.70
2019-04-27T03:53:46.938Z,94.60
2019-04-27T03:56:10.175Z,96.60
2019-04-27T03:58:39.657Z,97.80
2019-04-27T04:01:00.584Z,98.80
2019-04-27T04:03:20.577Z,98.90
2019-04-27T04:05:42.529Z,98.70
2019-04-27T04:08:03.477Z,98.60
2019-04-27T04:10:25.998Z,97.80
2019-04-27T04:12:56.421Z,97.30
2019-04-27T04:15:34.360Z,96.00
2019-04-27T04:17:54.883Z,96.10
2019-04-27T04:20:15.091Z,94.90
2019-04-27T04:22:35.599Z,96.60
2019-04-27T04:24:55.899Z,98.50
2019-04-27T04:27:16.514Z,95.10
2019-04-27T04:29:39.311Z,94.40
2019-04-27T04:32:00.488Z,94.00
2019-04-27T04:34:20.406Z,94.30
2019-04-27T04:36:43.047Z,93.80
2019-04-27T04:39:07.027Z,93.80
2019-04-27T04:41:30.371Z,93.50
2019-04-27T04:43:59.915Z,93.60
2019-04-27T04:46:32.064Z,93.40
2019-04-27T04:48:52.241Z,92.90
2019-04-27T04:51:12.169Z,92.70
2019-04-27T04:53:34.203Z,92.60
2019-04-27T04:55:54.463Z,92.80
2019-04-27T04:58:15.075Z,92.90
2019-04-27T05:00:35.271Z,94.40
2019-04-27T05:02:56.497Z,94.80
2019-04-27T05:05:19.206Z,94.50
2019-04-27T05:07:39.891Z,94.10
2019-04-27T05:09:59.803Z,92.90
2019-04-27T05:12:19.803Z,92.70
2019-04-27T05:14:39.755Z,91.80
2019-04-27T05:16:59.711Z,92.30
2019-04-27T05:19:19.973Z,91.90
2019-04-27T05:21:40.261Z,90.70
2019-04-27T05:24:00.726Z,90.50
2019-04-27T05:26:22.240Z,90.10
2019-04-27T05:28:42.480Z,90.10
2019-04-27T05:31:03.020Z,88.90
2019-04-27T05:33:23.288Z,89.70
2019-04-27T05:35:43.519Z,88.40
2019-04-27T05:38:15.805Z,89.20
2019-04-27T05:40:36.081Z,89.60
2019-04-27T05:42:56.313Z,88.60
2019-04-27T05:45:40.878Z,89.40
2019-04-27T05:48:02.820Z,87.40
2019-04-27T05:50:35.266Z,88.40
2019-04-27T05:52:45.149Z,87.40
2019-04-27T05:55:06.546Z,87.10
2019-04-27T05:57:30.821Z,85.00
2019-04-27T05:59:52.461Z,85.30
2019-04-27T06:02:12.269Z,85.50
2019-04-27T06:04:32.258Z,85.40
2019-04-27T06:06:53.915Z,84.70
2019-04-27T06:09:15.428Z,83.70
2019-04-27T06:11:35.820Z,82.30
2019-04-27T06:13:55.965Z,83.20
2019-04-27T06:16:16.276Z,84.70
2019-04-27T06:18:36.529Z,83.40
2019-04-27T06:20:56.779Z,82.70
2019-04-27T06:23:20.945Z,79.20
2019-04-27T06:25:41.019Z,80.30
2019-04-27T06:28:01.239Z,77.60
2019-04-27T06:30:21.457Z,76.20
2019-04-27T06:32:41.709Z,76.80
2019-04-27T06:35:01.929Z,75.90
2019-04-27T06:37:22.135Z,76.00
2019-04-27T06:39:42.415Z,74.30
2019-04-27T06:42:10.234Z,74.60
2019-04-27T06:44:24.681Z,73.40
2019-04-27T06:46:46.705Z,73.10
2019-04-27T06:49:07.039Z,71.20
2019-04-27T06:51:29.735Z,69.10
2019-04-27T06:53:49.965Z,68.50
2019-04-27T06:56:10.021Z,65.10
2019-04-27T06:58:30.255Z,64.60
2019-04-27T07:00:50.543Z,65.50
2019-04-27T07:03:10.785Z,66.60
2019-04-27T07:05:31.046Z,66.40
2019-04-27T07:07:51.296Z,64.80
2019-04-27T07:10:13.112Z,62.50
2019-04-27T07:12:34.991Z,64.70
2019-04-27T07:14:59.260Z,63.50
2019-04-27T07:17:19.775Z,63.50
2019-04-27T07:19:40.004Z,62.20
2019-04-27T07:22:00.273Z,61.80
2019-04-27T07:24:20.552Z,60.80
2019-04-27T07:26:40.793Z,62.40
2019-04-27T07:29:02.919Z,63.30
2019-04-27T07:31:23.173Z,63.60
2019-04-27T07:33:43.371Z,64.80
2019-04-27T07:36:03.700Z,63.30
2019-04-27T07:38:24.215Z,63.20
2019-04-27T07:40:44.500Z,63.50
2019-04-27T07:43:09.361Z,63.30
2019-04-27T07:45:31.317Z,64.40
2019-04-27T07:47:53.234Z,62.40
2019-04-27T07:50:13.623Z,61.70
2019-04-27T07:52:38.045Z,61.90
2019-04-27T07:54:58.764Z,60.10
2019-04-27T07:57:19.868Z,58.80
2019-04-27T07:59:42.071Z,57.90
2019-04-27T08:02:02.168Z,54.30
2019-04-27T08:04:22.420Z,52.90
2019-04-27T08:06:42.651Z,54.30
2019-04-27T08:09:03.648Z,50.50
2019-04-27T08:11:25.316Z,52.60
2019-04-27T08:13:45.223Z,55.60
2019-04-27T08:16:05.431Z,52.70
2019-04-27T08:18:39.624Z,52.00
2019-04-27T08:20:59.999Z,51.90
2019-04-27T08:23:19.952Z,52.20
2019-04-27T08:25:40.137Z,52.00
2019-04-27T08:28:02.097Z,51.10
2019-04-27T08:30:27.082Z,52.30
2019-04-27T08:32:51.042Z,53.10
2019-04-27T08:35:12.937Z,53.20
2019-04-27T08:37:33.173Z,53.10
2019-04-27T08:39:53.428Z,53.20
2019-04-27T08:42:13.678Z,51.30
2019-04-27T08:44:33.906Z,49.60
2019-04-27T08:46:53.933Z,48.60
2019-04-27T08:49:13.850Z,46.30
2019-04-27T08:51:34.171Z,45.50
2019-04-27T08:53:54.424Z,44.50
2019-04-27T08:56:14.636Z,44.40
2019-04-27T08:58:34.835Z,44.20
2019-04-27T09:00:55.134Z,43.30
2019-04-27T09:03:15.321Z,42.20
2019-04-27T09:05:35.536Z,41.80
2019-04-27T09:07:59.516Z,42.30
2019-04-27T09:10:24.805Z,42.00
2019-04-27T09:12:46.804Z,40.80
2019-04-27T09:15:09.997Z,39.80
2019-04-27T09:17:34.799Z,42.50
2019-04-27T09:20:02.400Z,38.60
2019-04-27T09:22:23.322Z,38.40
2019-04-27T09:24:43.375Z,39.90
2019-04-27T09:27:03.402Z,38.50
2019-04-27T09:29:23.473Z,41.00
2019-04-27T09:31:43.528Z,43.00
2019-04-27T09:34:05.560Z,41.50
2019-04-27T09:36:26.101Z,40.90
2019-04-27T09:38:49.233Z,41.10
2019-04-27T09:41:10.446Z,39.30
2019-04-27T09:43:30.770Z,40.60
2019-04-27T09:45:50.999Z,42.30
2019-04-27T09:48:11.242Z,45.20
2019-04-27T09:50:31.270Z,44.50
2019-04-27T09:52:51.500Z,45.70
2019-04-27T09:55:11.833Z,47.70
2019-04-27T09:57:32.123Z,47.20
2019-04-27T09:59:52.280Z,45.10
2019-04-27T10:02:12.527Z,46.60
2019-04-27T10:04:32.861Z,42.70
2019-04-27T10:06:53.126Z,42.30
2019-04-27T10:09:13.383Z,42.60
2019-04-27T10:11:35.229Z,42.90
2019-04-27T10:13:55.662Z,42.30
2019-04-27T10:16:15.930Z,41.30
2019-04-27T10:18:36.762Z,40.50
2019-04-27T10:21:01.847Z,40.10
2019-04-27T10:23:26.284Z,40.00
2019-04-27T10:25:46.562Z,39.20
2019-04-27T10:28:06.967Z,39.00
2019-04-27T10:30:28.497Z,39.10
2019-04-27T10:32:48.748Z,38.90
2019-04-27T10:35:09.068Z,40.00
2019-04-27T10:37:29.417Z,37.90
2019-04-27T10:39:49.738Z,40.30
2019-04-27T10:42:09.980Z,40.70
2019-04-27T10:44:30.295Z,41.10
2019-04-27T10:46:50.539Z,42.80
2019-04-27T10:49:11.079Z,43.30
2019-04-27T10:51:31.332Z,42.00
2019-04-27T10:53:51.769Z,41.90
2019-04-27T10:56:12.089Z,41.80
2019-04-27T10:58:32.405Z,40.60
2019-04-27T11:00:59.515Z,40.80
2019-04-27T11:03:21.379Z,38.60
2019-04-27T11:05:46.114Z,41.10
2019-04-27T11:08:11.454Z,41.80
2019-04-27T11:10:31.506Z,41.50
2019-04-27T11:12:51.736Z,40.80
2019-04-27T11:15:12.506Z,38.20
2019-04-27T11:17:32.839Z,37.60
2019-04-27T11:19:53.059Z,37.40
2019-04-27T11:22:13.291Z,35.60
2019-04-27T11:24:33.483Z,36.20
2019-04-27T11:26:53.735Z,36.50
2019-04-27T11:29:13.933Z,34.70
2019-04-27T11:31:34.217Z,35.80
2019-04-27T11:33:56.667Z,35.10
2019-04-27T11:36:23.081Z,34.20
2019-04-27T11:38:43.376Z,36.30
2019-04-27T11:41:03.834Z,35.30
2019-04-27T11:43:26.040Z,33.90
2019-04-27T11:45:46.294Z,33.70
2019-04-27T11:48:06.536Z,34.40
2019-04-27T11:50:26.747Z,35.70
2019-04-27T11:52:47.241Z,37.70
2019-04-27T11:55:08.240Z,38.60
2019-04-27T11:57:28.386Z,39.10
2019-04-27T11:59:48.637Z,40.10
2019-04-27T12:02:08.785Z,41.00
2019-04-27T12:04:29.025Z,40.60
2019-04-27T12:06:49.234Z,41.20
2019-04-27T12:09:09.896Z,41.00
2019-04-27T12:11:30.720Z,40.90
2019-04-27T12:13:50.980Z,40.60
2019-04-27T12:16:11.141Z,41.90
2019-04-27T12:18:31.447Z,40.90
2019-04-27T12:20:51.696Z,41.20
2019-04-27T12:23:11.915Z,41.10
2019-04-27T12:25:32.273Z,40.80
2019-04-27T12:27:56.983Z,40.30
2019-04-27T12:30:22.070Z,41.20
2019-04-27T12:32:42.387Z,42.20
2019-04-27T12:35:02.628Z,42.30
2019-04-27T12:37:22.871Z,40.00
2019-04-27T12:39:43.169Z,40.50
2019-04-27T12:42:03.482Z,37.80
2019-04-27T12:44:23.718Z,37.80
2019-04-27T12:46:43.961Z,39.50
2019-04-27T12:49:05.937Z,39.40
2019-04-27T12:51:26.334Z,38.20
2019-04-27T12:53:52.677Z,39.60
2019-04-27T12:56:11.924Z,39.40
2019-04-27T12:58:36.613Z,39.10
2019-04-27T13:01:01.306Z,40.10
2019-04-27T13:03:21.545Z,39.80
2019-04-27T13:05:43.931Z,40.20
2019-04-27T13:08:05.897Z,39.60
2019-04-27T13:10:25.942Z,40.20
2019-04-27T13:12:46.192Z,39.30
2019-04-27T13:15:08.242Z,40.00
2019-04-27T13:17:28.343Z,40.10
2019-04-27T13:19:49.808Z,40.30
2019-04-27T13:22:10.024Z,40.00
2019-04-27T13:24:31.209Z,41.00
2019-04-27T13:26:51.437Z,41.10
2019-04-27T13:29:11.610Z,40.10
2019-04-27T13:31:32.000Z,41.30
2019-04-27T13:33:52.226Z,41.50
2019-04-27T13:36:12.553Z,41.20
2019-04-27T13:38:32.936Z,40.80
2019-04-27T13:41:07.023Z,39.90
2019-04-27T13:43:30.876Z,40.00
2019-04-27T13:46:01.721Z,40.30
2019-04-27T13:48:27.936Z,40.10
2019-04-27T13:50:52.960Z,38.00
2019-04-27T13:53:13.296Z,36.50
2019-04-27T13:55:33.517Z,36.60
2019-04-27T13:57:53.675Z,34.70
2019-04-27T14:00:15.274Z,33.70
2019-04-27T14:02:38.538Z,31.90
2019-04-27T14:04:58.841Z,33.50
2019-04-27T14:07:19.163Z,35.50
2019-04-27T14:09:39.395Z,37.70
2019-04-27T14:12:04.154Z,38.20
2019-04-27T14:14:24.472Z,39.10
2019-04-27T14:16:44.757Z,38.80
2019-04-27T14:19:05.863Z,39.50
2019-04-27T14:21:26.117Z,41.30
2019-04-27T14:23:46.397Z,41.00
2019-04-27T14:26:08.555Z,41.70
2019-04-27T14:28:29.035Z,42.00
2019-04-27T14:30:49.266Z,40.50
2019-04-27T14:33:09.670Z,40.90
2019-04-27T14:35:29.947Z,43.30
2019-04-27T14:37:50.347Z,47.50
2019-04-27T14:40:12.408Z,49.60
2019-04-27T14:42:32.782Z,49.90
2019-04-27T14:44:53.056Z,48.50
2019-04-27T14:47:13.344Z,48.70
2019-04-27T14:49:34.730Z,50.90
2019-04-27T14:51:54.989Z,51.20
2019-04-27T14:54:16.769Z,50.30
2019-04-27T14:56:38.696Z,51.00
2019-04-27T14:58:58.893Z,51.60
2019-04-27T15:01:21.949Z,52.10
2019-04-27T15:03:41.258Z,53.40
2019-04-27T15:06:01.158Z,53.90
2019-04-27T15:08:21.242Z,53.30
2019-04-27T15:10:41.265Z,52.70
2019-04-27T15:13:01.671Z,53.30
2019-04-27T15:15:23.897Z,53.80
2019-04-27T15:17:44.571Z,55.50
2019-04-27T15:20:09.516Z,56.50
2019-04-27T15:22:31.022Z,57.00
2019-04-27T15:25:07.142Z,56.40
2019-04-27T15:27:14.768Z,57.90
2019-04-27T15:29:34.992Z,59.40
2019-04-27T15:32:01.371Z,59.10
2019-04-27T15:34:23.267Z,59.20
2019-04-27T15:36:43.909Z,58.80
2019-04-27T15:39:30.125Z,60.30
2019-04-27T15:41:51.207Z,64.40
2019-04-27T15:44:11.644Z,63.80
2019-04-27T15:46:35.033Z,67.70
2019-04-27T15:48:55.399Z,71.80
2019-04-27T15:51:19.608Z,72.60
2019-04-27T15:53:41.195Z,74.40
2019-04-27T15:56:01.993Z,75.30
2019-04-27T15:58:25.146Z,75.00
2019-04-27T16:00:49.679Z,71.80
2019-04-27T16:03:09.672Z,68.90
2019-04-27T16:05:32.321Z,71.10
2019-04-27T16:07:51.464Z,68.60
2019-04-27T16:10:11.619Z,68.00
2019-04-27T16:12:34.479Z,67.50
2019-04-27T16:14:53.233Z,59.90
2019-04-27T16:17:13.320Z,60.90
2019-04-27T16:19:33.560Z,62.50
2019-04-27T16:21:54.384Z,62.20
2019-04-27T16:24:17.142Z,60.00
2019-04-27T16:26:38.619Z,60.40
2019-04-27T16:28:58.719Z,61.50
2019-04-27T16:31:20.470Z,61.80
2019-04-27T16:33:42.180Z,61.10
2019-04-27T16:36:06.851Z,61.00
2019-04-27T16:38:26.712Z,62.20
2019-04-27T16:40:49.534Z,64.70
2019-04-27T16:43:09.957Z,65.50
2019-04-27T16:45:30.238Z,65.40
2019-04-27T16:47:52.153Z,65.90
2019-04-27T16:50:12.975Z,67.20
2019-04-27T16:52:33.269Z,68.30
2019-04-27T16:54:57.567Z,68.30
2019-04-27T16:57:15.759Z,68.40
2019-04-27T16:59:43.368Z,68.80
2019-04-27T17:01:57.173Z,69.10
2019-04-27T17:04:17.605Z,69.80
2019-04-27T17:06:40.745Z,69.80
2019-04-27T17:09:05.549Z,69.90
2019-04-27T17:11:23.745Z,70.70
2019-04-27T17:13:49.671Z,71.70
2019-04-27T17:16:24.756Z,72.50
2019-04-27T17:18:46.436Z,73.70
2019-04-27T17:21:18.328Z,74.60
2019-04-27T17:23:31.205Z,75.20
2019-04-27T17:25:52.870Z,76.10
2019-04-27T17:28:15.906Z,76.60
2019-04-27T17:30:41.507Z,77.30
2019-04-27T17:33:19.315Z,77.60
2019-04-27T17:35:42.601Z,78.60
2019-04-27T17:38:03.717Z,80.00
2019-04-27T17:40:23.462Z,80.70
2019-04-27T17:42:44.821Z,81.10
2019-04-27T17:45:09.023Z,81.40
2019-04-27T17:47:29.952Z,82.20
2019-04-27T17:49:50.340Z,82.10
2019-04-27T17:52:12.981Z,82.40
2019-04-27T17:54:32.368Z,83.40
2019-04-27T17:56:52.784Z,84.00
2019-04-27T17:59:16.895Z,83.50
2019-04-27T18:01:35.811Z,83.90
2019-04-27T18:03:59.999Z,84.60
2019-04-27T18:06:20.426Z,85.30
2019-04-27T18:08:41.116Z,86.10
2019-04-27T18:11:03.299Z,87.20
2019-04-27T18:13:25.491Z,88.40
2019-04-27T18:15:45.844Z,88.60
2019-04-27T18:18:11.100Z,89.50
2019-04-27T18:20:31.853Z,90.10
2019-04-27T18:23:00.095Z,90.70
2019-04-27T18:25:21.111Z,90.80
2019-04-27T18:27:51.575Z,91.10
2019-04-27T18:30:16.499Z,91.30
2019-04-27T18:32:37.902Z,91.50
2019-04-27T18:35:00.224Z,91.80
2019-04-27T18:37:24.925Z,92.10
2019-04-27T18:39:50.873Z,92.90
2019-04-27T18:42:08.872Z,93.50
2019-04-27T18:44:31.876Z,94.10
2019-04-27T18:46:53.729Z,94.60
2019-04-27T18:49:26.699Z,95.30
2019-04-27T18:51:49.156Z,95.80
2019-04-27T18:54:09.196Z,96.30
2019-04-27T18:56:33.572Z,96.30
2019-04-27T18:58:51.479Z,96.60
2019-04-27T19:01:11.776Z,96.40
2019-04-27T19:03:32.380Z,96.70
2019-04-27T19:05:52.931Z,97.40
2019-04-27T19:08:13.512Z,97.10
2019-04-27T19:10:34.245Z,97.50
2019-04-27T19:12:54.236Z,97.60
2019-04-27T19:15:14.970Z,98.10
2019-04-27T19:17:35.575Z,98.40
2019-04-27T19:19:58.490Z,98.70
2019-04-27T19:22:20.061Z,98.90
2019-04-27T19:24:40.689Z,99.50
2019-04-27T19:27:15.488Z,99.90
2019-04-27T19:29:29.247Z,99.90
2019-04-27T19:31:52.856Z,99.90
2019-04-27T19:34:12.834Z,99.90
2019-04-27T19:36:34.440Z,99.90
2019-04-27T19:38:55.125Z,99.90
2019-04-27T19:41:15.648Z,99.90
2019-04-27T19:43:36.220Z,99.90
2019-04-27T19:45:58.410Z,99.90
2019-04-27T19:48:18.660Z,99.90
2019-04-27T19:50:39.323Z,99.90
2019-04-27T19:52:59.997Z,99.90
2019-04-27T19:55:20.707Z,99.90
2019-04-27T19:57:44.012Z,99.90
2019-04-27T20:00:06.724Z,99.90
2019-04-27T20:02:28.802Z,99.90
2019-04-27T20:04:51.404Z,99.90
2019-04-27T20:07:11.691Z,99.90
2019-04-27T20:09:33.817Z,99.90
2019-04-27T20:11:54.369Z,99.90
2019-04-27T20:14:15.072Z,99.90
2019-04-27T20:16:35.632Z,99.90
2019-04-27T20:18:56.292Z,99.90
2019-04-27T20:21:17.950Z,99.90
2019-04-27T20:23:38.513Z,99.90
2019-04-27T20:25:59.040Z,99.90
2019-04-27T20:28:20.673Z,99.90
2019-04-27T20:30:43.408Z,99.90
2019-04-27T20:33:07.189Z,99.90
2019-04-27T20:35:30.358Z,99.90
2019-04-27T20:37:51.860Z,99.90
2019-04-27T20:40:12.884Z,99.90
2019-04-27T20:42:34.776Z,99.90
2019-04-27T20:44:56.856Z,99.90
2019-04-27T20:47:18.552Z,99.90
2019-04-27T20:49:39.259Z,99.90
2019-04-27T20:52:04.094Z,99.90
2019-04-27T20:54:24.616Z,99.90
2019-04-27T20:56:45.166Z,99.90
2019-04-27T20:59:07.246Z,99.90
2019-04-27T21:01:28.022Z,99.90
2019-04-27T21:03:54.828Z,99.90
2019-04-27T21:06:21.185Z,99.90
2019-04-27T21:08:44.173Z,99.90
2019-04-27T21:11:04.789Z,99.90
2019-04-27T21:13:25.301Z,99.90
2019-04-27T21:15:45.842Z,99.90
2019-04-27T21:18:06.444Z,99.90
2019-04-27T21:20:26.945Z,99.90
2019-04-27T21:22:47.395Z,99.90
2019-04-27T21:25:07.989Z,99.90
2019-04-27T21:27:28.495Z,99.90
2019-04-27T21:29:48.957Z,99.90
2019-04-27T21:32:11.064Z,99.90
2019-04-27T21:34:34.618Z,99.90
2019-04-27T21:36:55.195Z,99.90
2019-04-27T21:39:15.644Z,99.90
2019-04-27T21:41:36.251Z,99.90
2019-04-27T21:43:57.919Z,99.90
2019-04-27T21:46:21.028Z,99.90
2019-04-27T21:48:44.259Z,99.90
2019-04-27T21:51:07.269Z,99.90
2019-04-27T21:53:37.310Z,99.90
2019-04-27T21:56:04.518Z,99.90
2019-04-27T21:58:28.870Z,99.90
2019-04-27T22:01:06.090Z,99.90
2019-04-27T22:03:27.390Z,99.90
2019-04-27T22:05:47.930Z,99.90
2019-04-27T22:08:08.534Z,99.90
2019-04-27T22:10:31.098Z,99.90
2019-04-27T22:12:51.869Z,99.90
2019-04-27T22:15:12.913Z,99.90
2019-04-27T22:17:33.487Z,99.90
2019-04-27T22:19:55.436Z,99.90
2019-04-27T22:22:17.754Z,99.90
2019-04-27T22:24:42.832Z,99.90
2019-04-27T22:27:02.022Z,99.90
2019-04-27T22:29:22.518Z,99.90
2019-04-27T22:31:42.953Z,99.90
2019-04-27T22:34:04.587Z,99.90
2019-04-27T22:36:25.285Z,99.90
2019-04-27T22:38:45.936Z,99.90
2019-04-27T22:41:14.896Z,99.90
2019-04-27T22:43:46.062Z,99.90
2019-04-27T22:46:08.424Z,99.90
2019-04-27T22:48:28.448Z,99.90
2019-04-27T22:50:51.447Z,99.90
2019-04-27T22:53:11.530Z,99.90
2019-04-27T22:55:32.085Z,99.90
2019-04-27T22:57:54.399Z,99.90
2019-04-27T23:00:16.714Z,99.90
2019-04-27T23:02:40.864Z,99.90
2019-04-27T23:05:04.600Z,99.90
2019-04-27T23:07:25.212Z,99.90
2019-04-27T23:09:45.881Z,99.90
2019-04-27T23:12:06.798Z,99.90
2019-04-27T23:14:27.375Z,99.90
2019-04-27T23:16:52.139Z,99.90
2019-04-27T23:19:12.704Z,99.90
2019-04-27T23:21:35.956Z,99.90
2019-04-27T23:23:56.144Z,99.90
2019-04-27T23:26:16.678Z,99.90
2019-04-27T23:28:37.197Z,99.90
2019-04-27T23:31:02.253Z,99.90
2019-04-27T23:33:22.564Z,99.90
2019-04-27T23:35:44.229Z,99.90
2019-04-27T23:38:14.809Z,99.90
2019-04-27T23:40:26.903Z,99.90
2019-04-27T23:42:47.341Z,99.90
2019-04-27T23:45:11.408Z,99.90
2019-04-27T23:47:31.880Z,99.90
2019-04-27T23:49:52.380Z,99.90
2019-04-27T23:52:20.555Z,99.90
2019-04-27T23:54:42.883Z,99.90
2019-04-27T23:57:02.935Z,99.90
2019-04-27T23:59:25.142Z,99.90
